Terminal Aerodrome Forecast
Issued by NWS Memphis, TN

Home | Current Version | Previous Version | Text Only | Print | Product List | Glossary On
Versions: 1 2 3 4 5 6 7 8 9 10 11 12 13 14 15 16 17 18 19
000
FTUS44 KMEG 291740
TAFJBR
TAF
KJBR 291740Z 2918/3018 23008KT P6SM SCT010 BKN035
      TEMPO 2918/2919 BKN010
     FM291930 24007KT P6SM VCTS FEW040CB BKN045
      TEMPO 2920/2923 VRB15G35KT 2SM TSRA BKN035CB
     FM300200 VRB03KT P6SM BKN250
     FM300800 VRB02KT P6SM VCTS BKN040CB
     FM301500 24006KT P6SM SCT035 BKN200=

USA.gov is the U.S. government's official web portal to all federal, state and local government web resources and services.